HSOB

El Obeid Airport

Al-Ubayyid, Sudan
METAR HSOB 182300Z 34007KT CAVOK 21/02 Q1014
Observed Flight Rules
Nov-18 @ 23:00 UTC (2 hours ago) Visual Flight Rules
Wind Visibility Clouds
340° at 7 knots 10,000+ meters
  • Clear skies
Temperatures Readings
Current 21°C / 70°F
Dewpoint 2°C / 36°F
Humidity 29%
Altimeter 29.94" Hg
Pressure 1014 hPa
Elevation 574
METAR HSOB 182300Z 34007KT CAVOK 21/02 Q1014
Observed Flight Rules
Nov-18 @ 23:00 UTC
(2 hours ago)
VFR
Wind Visibility
340° at 7 knots 10,000+ meters
Clouds
  • Clear skies
Temperature Dewpoint
21°C / 70°F 2°C / 36°F
Humidity Altimeter Pressure
29% 29.94" Hg 1014 hPa